Time;durP1;ratioP1;P1;durP2;ratioP2;P2;SDS_P1;SDS_P2;PMS_P1;PMS_P2;Temp;Humidity;BMP_temperature;BMP_pressure;BME280_temperature;BME280_humidity;BME280_pressure;Samples;Min_cycle;Max_cycle;Signal;HPM_P1;HPM_P2
2022/02/07 00:03:06;;;;;;;;;1.60;1.60;;;;;10.57;46.90;96863.84;6200396;28;96978;-75
2022/02/07 00:06:10;;;;;;;;;2.00;1.00;;;;;10.39;47.03;96852.53;6218435;28;97434;-73
2022/02/07 00:09:13;;;;;;;;;2.00;2.00;;;;;10.55;47.11;96874.09;6232887;28;96697;-75
2022/02/07 00:12:18;;;;;;;;;2.00;2.00;;;;;10.26;47.62;96866.53;6229945;28;96905;-73
2022/02/07 00:15:21;;;;;;;;;1.00;1.00;;;;;10.62;47.50;96864.66;6227901;28;98565;-73
2022/02/07 00:18:25;;;;;;;;;2.00;2.00;;;;;10.55;47.62;96864.13;6224750;28;97513;-74
2022/02/07 00:21:29;;;;;;;;;1.00;1.00;;;;;10.47;48.04;96859.25;6217697;28;98098;-73
2022/02/07 00:24:32;;;;;;;;;1.00;1.00;;;;;10.58;47.96;96852.81;6195537;28;96597;-74
2022/02/07 00:27:38;;;;;;;;;1.00;1.00;;;;;10.33;47.86;96829.38;6225846;28;98942;-72
2022/02/07 00:30:41;;;;;;;;;1.40;1.40;;;;;10.63;47.91;96844.72;6236771;28;98725;-72
2022/02/07 00:33:45;;;;;;;;;0.00;0.00;;;;;10.60;47.85;96844.47;6238304;28;96554;-72
2022/02/07 00:36:48;;;;;;;;;1.00;1.00;;;;;10.63;47.81;96844.72;6237394;28;97566;-72
2022/02/07 00:39:57;;;;;;;;;1.00;1.00;;;;;10.58;47.94;96847.41;6236369;28;97478;-74
2022/02/07 00:43:13;;;;;;;;;2.25;2.00;;;;;10.60;47.92;96844.47;6254528;27;96899;-72
2022/02/07 00:46:23;;;;;;;;;2.00;2.00;;;;;10.45;47.97;96849.84;6238573;28;96656;-73
2022/02/07 00:49:27;;;;;;;;;1.00;1.00;;;;;10.37;48.61;96838.53;6237139;28;96983;-73
2022/02/07 00:52:31;;;;;;;;;1.00;1.00;;;;;10.40;48.70;96837.19;6237203;28;97166;-72
2022/02/07 00:55:35;;;;;;;;;2.00;2.00;;;;;10.53;48.56;96831.25;6239431;27;96802;-74
2022/02/07 00:58:39;;;;;;;;;1.40;1.40;;;;;10.39;48.51;96819.41;6242077;27;97936;-72
2022/02/07 01:01:45;;;;;;;;;1.40;1.40;;;;;10.37;48.82;96826.94;6226777;28;99687;-73
2022/02/07 01:04:50;;;;;;;;;2.00;2.00;;;;;10.29;49.27;96809.47;6216780;28;97461;-75
2022/02/07 01:07:57;;;;;;;;;2.00;2.00;;;;;10.43;49.53;96848.22;6232912;28;96962;-74
2022/02/07 01:11:09;;;;;;;;;1.40;1.40;;;;;10.46;49.26;96849.56;6234841;28;96453;-73
2022/02/07 01:14:29;;;;;;;;;2.00;2.00;;;;;10.46;49.26;96844.19;6200851;28;98486;-73
2022/02/07 01:18:24;;;;;;;;;2.00;2.00;;;;;10.33;49.76;96844.72;6205969;28;97448;-73
2022/02/07 01:48:40;;;;;;;;;1.00;1.00;;;;;10.43;50.88;96817.78;6205229;28;97756;-73
2022/02/07 01:55:14;;;;;;;;;1.00;1.00;;;;;10.29;51.46;96797.88;6236241;28;97532;-74
2022/02/07 01:58:19;;;;;;;;;1.00;1.00;;;;;10.38;51.24;96790.88;6217428;28;96955;-76
2022/02/07 02:01:23;;;;;;;;;1.80;1.80;;;;;10.28;51.42;96772.81;6201297;28;97747;-75
2022/02/07 02:04:28;;;;;;;;;1.00;1.00;;;;;10.12;51.54;96760.41;6242108;28;96650;-76
2022/02/07 02:07:31;;;;;;;;;1.00;1.00;;;;;9.77;51.25;96701.25;6240713;28;96685;-74
2022/02/07 02:10:41;;;;;;;;;1.00;1.00;;;;;10.29;51.21;96768.25;6225907;28;98753;-74
2022/02/07 02:13:59;;;;;;;;;2.00;2.00;;;;;10.36;50.97;96763.41;6235465;28;96503;-74
2022/02/07 02:17:36;;;;;;;;;2.00;2.00;;;;;10.25;51.12;96767.19;6220002;28;96550;-74
2022/02/07 02:37:44;;;;;;;;;2.00;2.00;;;;;10.47;49.91;96769.56;6244572;28;96376;-74
2022/02/07 02:52:49;;;;;;;;;1.00;1.00;;;;;10.43;49.50;96780.09;6203139;22;97212;-75
2022/02/07 02:55:53;;;;;;;;;2.00;2.00;;;;;10.40;49.21;96792.22;6194036;28;97420;-74
2022/02/07 02:59:05;;;;;;;;;3.00;2.00;;;;;10.19;49.59;96755.59;6176228;28;98622;-74
2022/02/07 03:02:12;;;;;;;;;1.20;1.20;;;;;9.32;49.22;96618.66;6209541;28;96726;-74
2022/02/07 03:05:16;;;;;;;;;1.00;1.00;;;;;9.45;49.25;96601.97;6181514;28;96502;-74
2022/02/07 03:08:23;;;;;;;;;2.00;2.00;;;;;10.41;49.17;96753.41;6151770;28;99588;-75
2022/02/07 03:11:27;;;;;;;;;0.00;0.00;;;;;10.46;49.13;96757.97;6165661;28;98599;-74
2022/02/07 03:14:43;;;;;;;;;1.00;1.00;;;;;10.46;48.80;96762.59;6200908;28;96587;-75
2022/02/07 03:17:48;;;;;;;;;1.00;1.00;;;;;10.47;48.95;96754.22;6173080;28;98686;-74
2022/02/07 03:20:52;;;;;;;;;2.00;2.00;;;;;10.46;48.99;96751.81;6166460;28;97025;-74
2022/02/07 03:23:57;;;;;;;;;1.00;1.00;;;;;10.46;49.38;96763.38;6166843;28;97067;-75
2022/02/07 03:27:01;;;;;;;;;1.00;1.00;;;;;10.41;49.27;96749.91;6155455;28;98151;-74
2022/02/07 03:30:10;;;;;;;;;1.25;1.00;;;;;10.47;49.12;96764.19;6184839;28;96487;-74
2022/02/07 03:33:20;;;;;;;;;2.00;2.00;;;;;10.52;49.00;96773.06;6151320;28;98818;-74
2022/02/07 03:36:29;;;;;;;;;1.00;1.00;;;;;10.48;48.89;96761.22;6163983;28;97305;-74
2022/02/07 03:39:34;;;;;;;;;2.00;2.00;;;;;10.63;48.66;96750.41;6169541;28;96945;-74
2022/02/07 03:42:38;;;;;;;;;1.00;1.00;;;;;10.63;48.52;96744.22;6160002;28;99001;-75
2022/02/07 03:45:43;;;;;;;;;1.00;1.00;;;;;10.67;48.32;96740.69;6172365;28;99756;-74
2022/02/07 03:48:51;;;;;;;;;1.00;1.00;;;;;10.81;48.13;96759.78;6188869;28;96735;-74
2022/02/07 03:51:56;;;;;;;;;1.00;1.00;;;;;10.86;48.01;96754.38;6187660;28;96633;-74
2022/02/07 03:55:01;;;;;;;;;1.00;1.00;;;;;10.98;47.49;96743.28;6188158;28;97495;-76
2022/02/07 03:58:07;;;;;;;;;1.00;1.00;;;;;11.03;47.51;96724.38;6151718;28;96423;-75
2022/02/07 04:01:10;;;;;;;;;1.00;1.00;;;;;11.08;47.31;96722.47;6169158;28;96623;-74
2022/02/07 04:04:18;;;;;;;;;2.00;2.00;;;;;11.12;47.49;96728.94;6150360;28;98345;-75
2022/02/07 04:07:24;;;;;;;;;1.00;1.00;;;;;11.13;47.16;96738.63;6166377;28;96547;-73
2022/02/07 04:10:37;;;;;;;;;1.00;1.00;;;;;11.17;47.01;96745.09;6147870;28;98348;-75
2022/02/07 04:13:46;;;;;;;;;1.50;1.50;;;;;11.20;47.14;96749.91;6149227;28;96993;-74
2022/02/07 04:16:50;;;;;;;;;1.00;1.00;;;;;11.26;46.75;96756.09;6168942;28;96758;-75
2022/02/07 04:20:10;;;;;;;;;2.00;2.00;;;;;11.24;46.77;96771.72;6154375;28;97806;-74
2022/02/07 04:23:20;;;;;;;;;1.60;1.60;;;;;11.24;46.82;96775.22;6187814;28;97476;-75
2022/02/07 04:26:51;;;;;;;;;1.25;1.25;;;;;11.20;46.92;96779.56;6155342;28;96647;-74
2022/02/07 04:29:55;;;;;;;;;2.00;2.00;;;;;11.14;47.10;96777.19;6192634;28;97484;-73
2022/02/07 04:33:04;;;;;;;;;2.00;2.00;;;;;11.22;47.00;96796.31;6158078;28;99861;-74
2022/02/07 04:36:08;;;;;;;;;1.00;1.00;;;;;11.05;46.96;96762.66;6191243;28;96722;-75
2022/02/07 04:39:12;;;;;;;;;1.50;1.50;;;;;11.25;46.80;96800.31;6172278;28;96960;-75
2022/02/07 04:42:18;;;;;;;;;1.00;1.00;;;;;11.25;46.99;96792.22;6160724;28;97517;-74
2022/02/07 04:45:37;;;;;;;;;1.00;1.00;;;;;11.21;46.97;96797.38;6172546;28;97207;-75
2022/02/07 04:49:03;;;;;;;;;1.00;1.00;;;;;11.14;47.00;96798.78;6176084;28;96509;-75
2022/02/07 04:52:19;;;;;;;;;1.00;1.00;;;;;11.13;46.84;96797.16;6171309;28;97938;-75
2022/02/07 04:55:34;;;;;;;;;1.50;1.50;;;;;11.07;47.32;96799.06;6180349;28;96422;-74
2022/02/07 04:58:55;;;;;;;;;3.00;2.00;;;;;11.06;47.51;96799.31;6170610;28;98467;-74
2022/02/07 05:02:08;;;;;;;;;3.00;2.40;;;;;11.05;47.64;96808.47;6166088;28;96813;-74
2022/02/07 05:05:23;;;;;;;;;1.60;1.00;;;;;10.90;47.81;96777.00;6162189;28;96477;-75
2022/02/07 05:15:17;;;;;;;;;2.00;2.00;;;;;10.96;48.35;96818.22;6186025;28;97456;-73
2022/02/07 05:18:22;;;;;;;;;1.00;1.00;;;;;10.94;48.58;96825.78;6167790;28;97157;-74
2022/02/07 05:21:40;;;;;;;;;1.50;1.50;;;;;10.67;49.52;96836.88;6156041;28;96966;-74
2022/02/07 05:25:03;;;;;;;;;2.50;2.00;;;;;10.37;50.18;96833.16;6180370;28;97519;-73
2022/02/07 05:28:26;;;;;;;;;1.80;1.80;;;;;10.64;50.22;96837.44;6166750;28;97756;-73
2022/02/07 05:31:49;;;;;;;;;2.00;2.00;;;;;10.59;50.35;96837.44;6185794;28;97392;-73
2022/02/07 05:35:22;;;;;;;;;1.20;1.20;;;;;10.29;50.55;96814.84;6166807;28;96652;-74
2022/02/07 05:38:25;;;;;;;;;1.60;1.60;;;;;10.61;50.43;96857.63;6176618;28;97979;-74
2022/02/07 05:41:50;;;;;;;;;2.00;1.00;;;;;10.62;50.57;96871.91;6167388;28;98384;-73
2022/02/07 05:45:19;;;;;;;;;2.00;2.00;;;;;10.43;51.22;96880.56;6147237;28;98210;-73
2022/02/07 05:48:50;;;;;;;;;2.00;2.00;;;;;10.48;51.41;96878.94;6177624;28;96703;-73
2022/02/07 05:52:17;;;;;;;;;2.00;2.00;;;;;10.48;51.72;96878.94;6167903;28;96940;-75
2022/02/07 05:55:40;;;;;;;;;2.80;2.80;;;;;10.55;51.91;96880.28;6194119;28;96840;-73
2022/02/07 05:58:55;;;;;;;;;2.00;2.00;;;;;10.53;51.94;96881.63;6153498;28;98749;-73
2022/02/07 06:02:22;;;;;;;;;3.00;3.00;;;;;10.49;52.55;96883.25;6179012;28;98825;-74
2022/02/07 06:05:33;;;;;;;;;3.75;3.75;;;;;10.51;52.72;96883.78;6192824;28;96738;-72
2022/02/07 06:08:42;;;;;;;;;3.00;3.00;;;;;10.48;52.80;96904.00;6182699;28;98156;-71
2022/02/07 06:11:50;;;;;;;;;3.25;3.25;;;;;10.42;52.78;96887.00;6174140;28;96744;-70
2022/02/07 06:14:53;;;;;;;;;5.67;4.00;;;;;10.47;52.78;96904.25;6177418;28;97282;-74
2022/02/07 06:17:59;;;;;;;;;3.00;3.00;;;;;10.59;52.60;96910.19;6168066;28;97653;-73
2022/02/07 06:21:07;;;;;;;;;3.00;3.00;;;;;10.53;52.36;96914.78;6170496;28;97408;-74
2022/02/07 06:24:14;;;;;;;;;2.00;2.00;;;;;10.51;52.67;96925.00;6158981;28;98527;-72
2022/02/07 06:27:18;;;;;;;;;2.00;2.00;;;;;10.60;52.56;96936.06;6178043;28;97165;-73
2022/02/07 06:30:22;;;;;;;;;2.00;2.00;;;;;10.41;52.62;96909.63;6176463;28;98459;-73
2022/02/07 06:33:26;;;;;;;;;3.00;3.00;;;;;10.62;52.54;96956.25;6166211;28;97871;-73
2022/02/07 06:36:31;;;;;;;;;3.00;2.40;;;;;10.62;52.65;96960.84;6147594;28;98573;-73
2022/02/07 06:39:36;;;;;;;;;2.00;2.00;;;;;10.53;52.79;97003.66;6162013;28;98657;-72
2022/02/07 06:42:40;;;;;;;;;4.00;4.00;;;;;10.51;52.70;97050.78;6148726;28;99514;-72
2022/02/07 06:45:43;;;;;;;;;2.00;2.00;;;;;10.27;51.84;97063.94;6162007;28;99532;-73
2022/02/07 06:48:47;;;;;;;;;3.00;3.00;;;;;10.17;51.54;97072.78;6186366;28;96595;-72
2022/02/07 06:51:54;;;;;;;;;2.40;2.00;;;;;9.98;51.14;97085.84;6187067;28;97834;-71
2022/02/07 06:54:58;;;;;;;;;2.00;1.50;;;;;9.79;50.92;97102.69;6177871;28;96979;-71
2022/02/07 06:58:02;;;;;;;;;2.00;1.00;;;;;9.61;51.18;97120.09;6189093;28;96928;-72
2022/02/07 07:01:06;;;;;;;;;1.40;1.40;;;;;9.49;51.55;97125.63;6176634;28;98336;-72
2022/02/07 07:04:12;;;;;;;;;1.00;1.00;;;;;9.37;51.66;97132.25;6167259;28;96481;-71
2022/02/07 07:07:20;;;;;;;;;1.00;1.00;;;;;9.09;51.93;97152.97;6188133;28;96629;-71
2022/02/07 07:10:24;;;;;;;;;1.40;1.40;;;;;9.07;52.08;97165.88;6172564;28;97164;-72
2022/02/07 07:13:39;;;;;;;;;2.40;2.40;;;;;8.96;52.13;97160.63;6172864;28;97967;-68
2022/02/07 07:16:53;;;;;;;;;2.00;2.00;;;;;8.99;52.20;97177.06;6179872;28;96644;-69
2022/02/07 07:20:02;;;;;;;;;1.20;1.00;;;;;8.87;52.71;97176.41;6162570;28;97905;-69
2022/02/07 07:23:11;;;;;;;;;3.00;3.00;;;;;8.82;52.77;97184.41;6186319;28;97116;-72
2022/02/07 07:26:16;;;;;;;;;2.00;2.00;;;;;8.79;53.03;97194.84;6186977;28;97385;-73
2022/02/07 07:29:25;;;;;;;;;2.00;2.00;;;;;8.77;53.03;97207.72;6186356;28;97496;-72
2022/02/07 07:32:31;;;;;;;;;2.00;1.40;;;;;8.83;52.97;97207.53;6181192;28;97000;-72
2022/02/07 07:35:35;;;;;;;;;3.00;3.00;;;;;8.83;53.10;97212.91;6191662;28;96745;-72
2022/02/07 07:38:43;;;;;;;;;3.00;3.00;;;;;8.70;53.24;97218.66;6176983;28;96741;-71
2022/02/07 07:41:48;;;;;;;;;4.00;3.00;;;;;8.62;53.47;97213.72;6169986;28;98823;-71
2022/02/07 07:45:03;;;;;;;;;3.60;2.00;;;;;8.61;53.44;97217.47;6160002;28;97039;-71
2022/02/07 07:48:16;;;;;;;;;3.40;3.00;;;;;8.68;53.29;97229.66;6165542;28;96403;-72
2022/02/07 07:51:39;;;;;;;;;4.00;4.00;;;;;8.67;53.31;97221.84;6168685;28;96544;-72
2022/02/07 07:55:25;;;;;;;;;3.00;2.80;;;;;8.73;53.17;97218.16;6138887;28;98049;-71
2022/02/07 08:01:55;;;;;;;;;4.00;4.00;;;;;8.91;53.18;97228.59;6152275;28;99612;-71
2022/02/07 08:05:06;;;;;;;;;3.00;3.00;;;;;8.98;53.00;97234.59;6182817;28;96610;-70
2022/02/07 08:08:21;;;;;;;;;3.00;3.00;;;;;8.97;53.07;97241.03;6164228;28;96997;-72
2022/02/07 08:11:26;;;;;;;;;4.00;3.00;;;;;8.95;53.29;97240.44;6175267;28;97490;-72
2022/02/07 08:14:36;;;;;;;;;4.80;3.20;;;;;9.05;53.00;97245.94;6185839;28;96691;-72
2022/02/07 08:17:59;;;;;;;;;5.00;5.00;;;;;8.88;52.86;97255.16;6169668;28;99473;-73
2022/02/07 08:21:03;;;;;;;;;4.00;4.00;;;;;8.98;52.63;97272.22;6194453;28;97109;-72
2022/02/07 08:24:07;;;;;;;;;6.00;5.00;;;;;9.02;52.59;97284.09;6178310;28;96647;-73
2022/02/07 08:27:12;;;;;;;;;4.40;4.40;;;;;9.06;52.70;97295.13;6182708;28;96454;-71
2022/02/07 08:30:15;;;;;;;;;5.00;5.00;;;;;9.17;52.35;97315.72;6165511;28;96551;-71
2022/02/07 08:33:23;;;;;;;;;5.00;5.00;;;;;9.13;52.08;97338.78;6169671;28;97234;-71
2022/02/07 08:36:27;;;;;;;;;7.40;6.40;;;;;9.16;52.15;97334.78;6163015;28;98084;-71
2022/02/07 08:39:30;;;;;;;;;6.00;5.00;;;;;9.25;52.22;97339.47;6175382;28;97166;-70
2022/02/07 08:42:35;;;;;;;;;8.00;7.00;;;;;9.26;52.23;97337.59;6164063;28;96482;-71
2022/02/07 08:45:39;;;;;;;;;6.00;5.80;;;;;9.39;51.80;97335.31;6176279;28;96904;-68
2022/02/07 08:48:42;;;;;;;;;6.00;6.00;;;;;9.69;51.17;97347.47;6174628;28;97538;-70
2022/02/07 08:51:45;;;;;;;;;6.00;5.75;;;;;9.88;50.85;97349.56;6165629;28;98965;-71
2022/02/07 08:54:49;;;;;;;;;6.00;6.00;;;;;10.19;49.36;97348.00;6171170;28;96698;-71
2022/02/07 08:57:58;;;;;;;;;8.00;7.00;;;;;10.46;48.82;97342.53;6167463;28;98558;-72
2022/02/07 09:01:10;;;;;;;;;7.00;6.00;;;;;10.36;48.60;97345.97;6171314;28;96557;-71
2022/02/07 09:07:47;;;;;;;;;6.00;4.00;;;;;10.57;47.16;97352.34;6112461;28;97162;-71
2022/02/07 09:10:52;;;;;;;;;4.00;4.00;;;;;10.58;47.11;97359.34;6100356;28;98524;-71
2022/02/07 09:13:59;;;;;;;;;4.75;4.00;;;;;10.47;46.54;97387.28;6130948;28;97209;-72
2022/02/07 09:17:02;;;;;;;;;3.60;3.60;;;;;10.32;46.30;97376.38;6114534;28;97268;-70
2022/02/07 09:20:07;;;;;;;;;3.00;3.00;;;;;10.33;46.43;97384.22;6121344;28;96711;-72
2022/02/07 09:23:10;;;;;;;;;5.00;5.00;;;;;10.26;46.34;97401.66;6136025;28;98171;-73
2022/02/07 09:26:14;;;;;;;;;3.80;3.00;;;;;10.33;46.69;97418.41;6138214;28;97465;-70
2022/02/07 09:29:18;;;;;;;;;5.00;4.50;;;;;10.29;45.55;97428.88;6120866;28;98407;-71
2022/02/07 09:32:22;;;;;;;;;4.50;4.00;;;;;10.20;45.45;97435.81;6118175;28;97429;-71
2022/02/07 09:35:25;;;;;;;;;4.00;4.00;;;;;10.15;45.82;97441.13;6110707;28;97999;-72
2022/02/07 09:38:29;;;;;;;;;3.00;3.00;;;;;9.92;45.18;97444.88;6122204;28;97243;-72
2022/02/07 09:41:34;;;;;;;;;5.00;4.00;;;;;9.99;44.96;97437.44;6128514;28;96577;-72
2022/02/07 09:44:44;;;;;;;;;4.00;3.00;;;;;9.98;45.05;97441.19;6186474;28;97752;-72
2022/02/07 09:47:48;;;;;;;;;2.60;2.00;;;;;9.84;44.80;97396.09;6171336;28;97791;-70
2022/02/07 09:50:51;;;;;;;;;3.00;3.00;;;;;10.07;45.25;97457.72;6173873;28;98235;-72
2022/02/07 09:53:54;;;;;;;;;4.00;3.00;;;;;10.23;45.06;97458.72;6198363;28;96469;-72
2022/02/07 09:56:59;;;;;;;;;3.00;3.00;;;;;10.26;44.75;97463.63;6204309;28;96543;-70
2022/02/07 10:00:07;;;;;;;;;3.00;3.00;;;;;10.03;44.34;97461.97;6179920;28;97731;-73
2022/02/07 10:03:26;;;;;;;;;4.00;4.00;;;;;10.00;44.43;97481.34;6192995;28;97136;-71
2022/02/07 10:06:41;;;;;;;;;2.00;2.00;;;;;9.82;44.18;97489.75;6212122;28;97937;-71
2022/02/07 10:09:59;;;;;;;;;5.00;5.00;;;;;9.85;45.02;97486.53;6184358;28;98579;-70
2022/02/07 10:13:19;;;;;;;;;4.00;3.50;;;;;9.84;44.84;97493.78;6200404;28;96453;-71
2022/02/07 10:16:35;;;;;;;;;4.00;3.60;;;;;9.84;45.05;97493.78;6194742;28;96654;-72
2022/02/07 10:19:49;;;;;;;;;4.60;4.00;;;;;9.97;44.83;97497.97;6169898;28;98670;-69
2022/02/07 10:34:28;;;;;;;;;4.00;4.00;;;;;10.07;44.40;97502.69;6196164;28;96890;-72
2022/02/07 10:37:25;;;;;;;;;4.00;4.00;;;;;9.83;43.56;97529.03;6205717;28;97024;-71
2022/02/07 10:40:25;;;;;;;;;3.40;3.40;;;;;9.44;44.28;97534.44;6199050;28;96950;-70
2022/02/07 10:44:02;;;;;;;;;4.00;4.00;;;;;9.50;44.73;97529.94;6189322;28;96682;-70
2022/02/07 10:47:12;;;;;;;;;3.00;3.00;;;;;9.38;44.93;97535.41;6184343;28;99494;-71
2022/02/07 10:50:18;;;;;;;;;3.00;3.00;;;;;9.55;45.37;97555.03;6206838;28;96484;-70
2022/02/07 10:53:23;;;;;;;;;5.00;4.00;;;;;9.48;45.20;97550.91;6180847;28;98904;-71
2022/02/07 10:56:35;;;;;;;;;2.00;2.00;;;;;9.36;45.51;97567.13;6185839;28;97959;-72
2022/02/07 10:59:38;;;;;;;;;5.20;4.00;;;;;9.46;45.79;97585.28;6190915;28;97221;-72
2022/02/07 11:02:51;;;;;;;;;4.00;3.40;;;;;9.51;46.49;97588.06;6200291;28;96959;-72
2022/02/07 11:06:01;;;;;;;;;2.60;2.60;;;;;9.57;46.98;97592.47;6179532;28;96705;-71
2022/02/07 11:09:11;;;;;;;;;4.40;4.40;;;;;9.60;47.17;97604.59;6186035;28;97434;-71
2022/02/07 11:12:38;;;;;;;;;2.00;2.00;;;;;9.48;48.08;97612.78;6182076;28;96927;-70
2022/02/07 11:15:48;;;;;;;;;3.00;3.00;;;;;9.37;48.23;97619.88;6187996;28;99588;-71
2022/02/07 11:19:06;;;;;;;;;3.00;3.00;;;;;9.34;48.85;97627.59;6197323;28;97578;-72
2022/02/07 11:22:27;;;;;;;;;4.00;3.00;;;;;9.40;48.83;97635.50;6205469;28;97466;-70
2022/02/07 11:25:43;;;;;;;;;2.00;2.00;;;;;9.33;48.52;97629.50;6179400;28;99551;-72
2022/02/07 11:28:46;;;;;;;;;4.00;3.00;;;;;8.80;49.03;97599.50;6206055;28;97222;-70
2022/02/07 11:31:52;;;;;;;;;4.20;4.00;;;;;9.17;49.34;97649.09;6188818;28;97394;-71
2022/02/07 11:35:04;;;;;;;;;3.00;2.60;;;;;9.02;49.98;97656.91;6186400;28;97628;-73
2022/02/07 11:38:14;;;;;;;;;3.00;3.00;;;;;9.00;49.94;97664.38;6205724;28;97548;-71
2022/02/07 11:41:17;;;;;;;;;3.00;3.00;;;;;8.91;50.18;97681.94;6200774;28;96932;-72
2022/02/07 11:44:26;;;;;;;;;4.00;3.20;;;;;8.87;50.38;97681.63;6192372;28;97446;-73
2022/02/07 11:47:31;;;;;;;;;5.00;4.00;;;;;8.72;50.87;97700.13;6186544;28;98216;-71
2022/02/07 11:50:41;;;;;;;;;5.00;5.00;;;;;8.77;50.95;97699.41;6198581;28;96839;-71
2022/02/07 11:53:49;;;;;;;;;7.00;5.33;;;;;8.85;51.14;97699.84;6177417;28;99855;-71
2022/02/07 11:57:06;;;;;;;;;5.00;4.00;;;;;8.72;50.90;97708.19;6182978;28;97446;-69
2022/02/07 12:00:15;;;;;;;;;6.25;6.00;;;;;8.74;50.85;97708.78;6193067;28;97184;-71
2022/02/07 12:03:20;;;;;;;;;5.00;5.00;;;;;8.67;51.04;97722.34;6181653;28;98013;-69
2022/02/07 12:06:24;;;;;;;;;6.00;6.00;;;;;8.55;50.74;97699.25;6198797;28;98023;-71
2022/02/07 12:09:30;;;;;;;;;6.75;6.00;;;;;8.69;50.87;97728.31;6198929;28;97242;-71
2022/02/07 12:12:46;;;;;;;;;5.40;5.40;;;;;8.70;50.67;97739.84;6199696;28;97911;-71
2022/02/07 12:15:53;;;;;;;;;7.00;6.00;;;;;8.81;50.70;97746.25;6199921;28;97417;-70
2022/02/07 12:19:10;;;;;;;;;6.40;5.00;;;;;8.50;51.27;97720.66;6161909;28;98216;-70
2022/02/07 12:22:16;;;;;;;;;5.00;4.75;;;;;8.69;51.06;97763.25;6175794;28;97155;-70
2022/02/07 12:28:59;;;;;;;;;4.00;4.00;;;;;8.94;50.68;97780.94;6284683;27;96178;-69
2022/02/07 12:32:03;;;;;;;;;5.00;4.00;;;;;8.89;50.70;97784.34;6255372;27;97537;-70
2022/02/07 12:35:09;;;;;;;;;5.00;4.00;;;;;8.88;50.84;97792.63;6253476;27;96675;-71
2022/02/07 12:38:13;;;;;;;;;8.60;7.00;;;;;8.55;50.92;97753.00;6235507;27;96920;-72
2022/02/07 12:41:18;;;;;;;;;4.00;3.20;;;;;8.90;50.56;97793.19;6255822;27;97709;-69
2022/02/07 12:44:23;;;;;;;;;6.00;6.00;;;;;8.87;50.00;97793.69;6253940;27;97073;-69
2022/02/07 12:47:27;;;;;;;;;4.00;4.00;;;;;9.03;49.32;97796.47;6255083;27;97359;-70
2022/02/07 12:50:30;;;;;;;;;4.20;4.00;;;;;9.20;48.35;97801.06;6255306;27;98067;-70
2022/02/07 12:53:36;;;;;;;;;5.00;4.00;;;;;9.29;48.43;97797.75;6244079;27;98290;-71
2022/02/07 12:56:40;;;;;;;;;3.60;3.60;;;;;9.42;47.60;97802.88;6237183;27;96821;-71
2022/02/07 12:59:52;;;;;;;;;5.00;5.00;;;;;9.47;47.24;97800.28;6239730;27;96714;-72
2022/02/07 13:02:56;;;;;;;;;3.40;3.40;;;;;9.56;46.95;97817.66;6227120;27;100357;-73
2022/02/07 13:06:05;;;;;;;;;2.60;2.00;;;;;9.54;46.69;97821.63;6237453;27;97387;-72
2022/02/07 13:09:13;;;;;;;;;3.00;3.00;;;;;9.57;46.52;97816.59;6234452;27;96739;-72
2022/02/07 13:12:24;;;;;;;;;2.20;2.20;;;;;9.64;45.80;97821.81;6235545;27;97606;-72
2022/02/07 13:15:35;;;;;;;;;3.00;3.00;;;;;9.87;45.68;97819.00;6240986;27;98100;-71
2022/02/07 13:18:39;;;;;;;;;2.00;2.00;;;;;9.74;43.97;97829.25;6208672;28;98824;-71
2022/02/07 13:21:47;;;;;;;;;2.60;2.00;;;;;9.88;44.37;97833.28;6237590;27;97499;-71
2022/02/07 13:24:51;;;;;;;;;1.00;1.00;;;;;9.88;43.55;97830.56;6213966;28;98661;-71
2022/02/07 13:27:56;;;;;;;;;3.00;2.00;;;;;9.91;42.80;97849.78;6235821;27;97018;-71
2022/02/07 13:31:02;;;;;;;;;3.60;3.00;;;;;9.94;42.97;97859.22;6242921;27;97353;-71
2022/02/07 13:34:21;;;;;;;;;3.25;3.00;;;;;10.06;42.97;97861.88;6241459;27;97644;-72
2022/02/07 13:37:29;;;;;;;;;5.00;4.40;;;;;10.00;43.27;97877.94;6247515;27;97066;-70
2022/02/07 13:40:39;;;;;;;;;3.00;2.00;;;;;9.96;41.87;97890.25;6226684;28;96587;-67
2022/02/07 13:43:43;;;;;;;;;3.75;3.00;;;;;9.92;40.85;97897.16;6227464;28;96678;-73
2022/02/07 13:46:48;;;;;;;;;2.00;2.00;;;;;9.95;41.04;97896.69;6207544;28;97836;-71
2022/02/07 13:49:56;;;;;;;;;3.80;2.00;;;;;10.04;41.16;97913.25;6219965;28;97319;-71
2022/02/07 13:53:07;;;;;;;;;3.60;3.00;;;;;9.97;40.71;97926.84;6223927;28;97011;-69
2022/02/07 13:56:10;;;;;;;;;1.00;1.00;;;;;10.13;40.30;97927.13;6210054;28;98434;-72
2022/02/07 13:59:16;;;;;;;;;3.00;3.00;;;;;10.14;40.08;97929.59;6218721;28;98655;-71
2022/02/07 14:02:30;;;;;;;;;2.50;2.50;;;;;10.16;39.64;97945.56;6221075;28;97459;-70
2022/02/07 14:05:35;;;;;;;;;3.00;2.00;;;;;10.13;39.82;97941.44;6202001;28;98113;-71
2022/02/07 14:08:41;;;;;;;;;3.00;3.00;;;;;10.17;39.42;97953.38;6202839;28;98649;-71
2022/02/07 14:11:48;;;;;;;;;3.75;2.75;;;;;10.21;39.15;97956.44;6209264;28;100069;-71
2022/02/07 14:14:51;;;;;;;;;3.40;3.00;;;;;10.19;39.10;97961.22;6212990;28;97474;-72
2022/02/07 14:17:56;;;;;;;;;3.00;2.00;;;;;10.31;38.83;97957.41;6221543;28;98171;-70
2022/02/07 14:21:08;;;;;;;;;3.00;2.00;;;;;10.32;38.77;97961.75;6202692;28;96515;-71
2022/02/07 14:24:11;;;;;;;;;2.20;2.00;;;;;10.37;38.87;97971.78;6210732;28;98113;-71
2022/02/07 14:27:34;;;;;;;;;3.00;2.00;;;;;10.31;38.89;97967.38;6219516;28;96851;-70
2022/02/07 14:30:38;;;;;;;;;3.00;3.00;;;;;10.09;38.87;97975.28;6217814;28;98826;-72
2022/02/07 14:33:43;;;;;;;;;4.00;4.00;;;;;10.25;39.06;97985.34;6222307;28;98693;-73
2022/02/07 14:36:46;;;;;;;;;3.00;3.00;;;;;10.24;39.05;97991.78;6223136;28;98720;-72
2022/02/07 14:39:50;;;;;;;;;4.00;3.00;;;;;10.19;39.47;98002.44;6227028;28;96493;-71
2022/02/07 14:42:55;;;;;;;;;4.00;3.00;;;;;10.19;38.96;98013.22;6228504;28;97930;-73
2022/02/07 14:46:08;;;;;;;;;2.00;2.00;;;;;10.27;39.34;98026.28;6220755;28;97849;-74
2022/02/07 14:49:12;;;;;;;;;3.00;3.00;;;;;10.28;39.71;98033.31;6220926;28;96471;-72
2022/02/07 14:52:15;;;;;;;;;2.00;2.00;;;;;10.18;38.75;98049.28;6223678;28;97419;-72
2022/02/07 14:55:21;;;;;;;;;3.00;3.00;;;;;10.22;39.32;98052.31;6227647;27;97477;-73
2022/02/07 14:58:24;;;;;;;;;4.00;4.00;;;;;10.21;39.31;98056.91;6221335;28;98454;-72
2022/02/07 15:01:27;;;;;;;;;4.00;3.00;;;;;10.26;39.01;98056.97;6212878;28;98469;-72
2022/02/07 15:04:32;;;;;;;;;3.00;3.00;;;;;10.31;38.58;98067.84;6212770;28;99816;-72
2022/02/07 15:07:36;;;;;;;;;4.00;3.00;;;;;10.23;38.40;98043.19;6198053;28;99505;-72
2022/02/07 15:10:41;;;;;;;;;4.00;3.00;;;;;10.47;38.13;98068.97;6231252;28;96764;-72
2022/02/07 15:13:45;;;;;;;;;3.00;2.80;;;;;10.44;37.61;98080.25;6229106;28;97595;-73
2022/02/07 15:16:48;;;;;;;;;3.50;3.50;;;;;10.36;37.89;98081.44;6225603;28;96651;-72
2022/02/07 15:19:53;;;;;;;;;4.60;3.60;;;;;10.16;38.07;98061.38;6211120;28;97550;-72
2022/02/07 15:22:56;;;;;;;;;4.00;4.00;;;;;10.25;38.03;98094.94;6246228;27;97936;-73
2022/02/07 15:26:01;;;;;;;;;4.00;4.00;;;;;10.26;38.15;98097.38;6215677;28;96992;-72
2022/02/07 15:29:04;;;;;;;;;5.00;5.00;;;;;10.29;38.31;98115.78;6213030;28;96661;-73
2022/02/07 15:32:22;;;;;;;;;3.80;3.20;;;;;10.14;38.89;98111.91;6213320;28;97545;-71
2022/02/07 15:35:26;;;;;;;;;6.00;4.40;;;;;10.08;39.97;98129.84;6214719;28;97088;-72
2022/02/07 15:38:33;;;;;;;;;5.60;5.00;;;;;10.02;40.89;98134.28;6211160;28;97242;-71
2022/02/07 15:41:37;;;;;;;;;4.00;4.00;;;;;9.86;41.89;98137.72;6209203;28;97981;-73
2022/02/07 15:44:40;;;;;;;;;6.00;4.00;;;;;9.64;43.42;98149.31;6212540;28;97760;-73
2022/02/07 15:47:44;;;;;;;;;4.20;4.00;;;;;9.55;44.69;98173.88;6210545;28;99684;-73
2022/02/07 15:50:48;;;;;;;;;4.00;4.00;;;;;9.46;46.03;98175.28;6210001;28;99611;-74
2022/02/07 15:53:52;;;;;;;;;4.00;4.00;;;;;9.37;46.63;98168.59;6216501;28;97069;-74
2022/02/07 15:56:56;;;;;;;;;5.40;4.00;;;;;9.26;46.98;98173.94;6212087;28;97418;-73
2022/02/07 15:59:59;;;;;;;;;5.00;4.00;;;;;9.18;47.26;98193.94;6210899;28;99582;-73
2022/02/07 16:03:02;;;;;;;;;6.00;5.00;;;;;9.07;47.70;98178.56;6211057;28;96961;-73
2022/02/07 16:06:07;;;;;;;;;5.60;5.60;;;;;9.00;47.65;98193.97;6227150;27;98351;-73
2022/02/07 16:09:11;;;;;;;;;5.00;5.00;;;;;8.94;47.82;98184.94;6208825;28;96706;-72
2022/02/07 16:12:17;;;;;;;;;5.00;4.00;;;;;8.95;48.05;98196.50;6210032;28;96880;-72
2022/02/07 16:15:20;;;;;;;;;5.00;4.00;;;;;8.76;48.42;98198.41;6208880;28;96850;-72
2022/02/07 16:18:23;;;;;;;;;4.00;3.60;;;;;8.60;49.05;98204.44;6211866;28;96412;-72
2022/02/07 16:21:28;;;;;;;;;6.60;6.60;;;;;8.56;49.41;98209.41;6212730;28;97984;-73